createdAt,value
2024-02-06T00:01:17.742Z,7.68
2024-02-06T00:03:51.145Z,7.45
2024-02-06T00:06:23.132Z,8.23
2024-02-06T00:08:55.093Z,8.57
2024-02-06T00:11:26.967Z,8.73
2024-02-06T00:13:58.838Z,8.23
2024-02-06T00:16:30.781Z,8.40
2024-02-06T00:19:03.313Z,7.75
2024-02-06T00:21:35.293Z,8.00
2024-02-06T00:24:07.288Z,8.52
2024-02-06T00:26:39.181Z,9.07
2024-02-06T00:29:11.031Z,7.43
2024-02-06T00:31:42.876Z,7.38
2024-02-06T00:34:14.932Z,7.57
2024-02-06T00:36:47.234Z,8.02
2024-02-06T00:39:19.200Z,7.60
2024-02-06T00:41:51.132Z,8.30
2024-02-06T00:44:23.039Z,7.85
2024-02-06T00:46:55.257Z,7.07
2024-02-06T00:49:27.203Z,7.53
2024-02-06T00:51:59.151Z,7.07
2024-02-06T00:54:30.977Z,7.25
2024-02-06T00:57:02.848Z,6.88
2024-02-06T00:59:34.745Z,7.15
2024-02-06T01:02:07.638Z,7.18
2024-02-06T01:04:39.586Z,6.60
2024-02-06T01:07:11.523Z,6.93
2024-02-06T01:09:43.423Z,7.15
2024-02-06T01:12:15.259Z,7.30
2024-02-06T01:14:47.102Z,7.05
2024-02-06T01:17:20.333Z,7.25
2024-02-06T01:19:52.257Z,7.00
2024-02-06T01:22:24.255Z,6.75
2024-02-06T01:24:56.540Z,5.75
2024-02-06T01:27:29.046Z,6.82
2024-02-06T01:30:00.916Z,6.90
2024-02-06T01:32:32.746Z,6.28
2024-02-06T01:35:05.677Z,6.20
2024-02-06T01:37:37.645Z,6.95
2024-02-06T01:40:09.983Z,6.43
2024-02-06T01:42:41.891Z,6.70
2024-02-06T01:45:13.701Z,6.55
2024-02-06T01:47:46.317Z,6.57
2024-02-06T01:50:18.792Z,6.20
2024-02-06T01:52:53.157Z,6.13
2024-02-06T01:55:25.560Z,5.72
2024-02-06T01:57:57.638Z,6.40
2024-02-06T02:00:30.198Z,6.40
2024-02-06T02:03:02.803Z,6.47
2024-02-06T02:05:34.986Z,6.75
2024-02-06T02:08:07.489Z,5.88
2024-02-06T02:10:39.451Z,6.10
2024-02-06T02:13:11.597Z,5.82
2024-02-06T02:15:43.632Z,6.95
2024-02-06T02:18:15.633Z,6.22
2024-02-06T02:20:47.548Z,5.63
2024-02-06T02:23:25.411Z,5.68
2024-02-06T02:26:01.379Z,5.53
2024-02-06T02:28:33.454Z,5.68
2024-02-06T02:31:07.108Z,5.63
2024-02-06T02:33:39.580Z,3.88
2024-02-06T02:36:13.036Z,5.07
2024-02-06T02:38:45.381Z,4.57
2024-02-06T02:41:17.162Z,3.72
2024-02-06T02:43:49.342Z,4.28
2024-02-06T02:46:21.191Z,3.83
2024-02-06T02:48:53.162Z,3.30
2024-02-06T02:51:25.260Z,3.22
2024-02-06T02:53:57.123Z,4.07
2024-02-06T02:56:29.030Z,2.65
2024-02-06T02:59:00.886Z,2.58
2024-02-06T03:01:32.861Z,2.80
2024-02-06T03:04:04.987Z,2.97
2024-02-06T03:06:37.681Z,2.72
2024-02-06T03:09:09.654Z,2.45
2024-02-06T03:11:41.476Z,2.42
2024-02-06T03:14:14.316Z,2.10
2024-02-06T03:16:46.169Z,2.08
2024-02-06T03:19:18.115Z,2.20
2024-02-06T03:21:50.097Z,1.90
2024-02-06T03:24:28.713Z,2.45
2024-02-06T03:27:00.756Z,2.60
2024-02-06T03:29:32.689Z,2.10
2024-02-06T03:32:05.443Z,2.00
2024-02-06T03:34:37.484Z,1.98
2024-02-06T03:37:09.368Z,2.28
2024-02-06T03:39:41.248Z,1.63
2024-02-06T03:42:13.081Z,1.77
2024-02-06T03:44:45.318Z,2.33
2024-02-06T03:47:18.155Z,1.80
2024-02-06T03:49:50.134Z,1.70
2024-02-06T03:52:22.121Z,2.10
2024-02-06T03:54:54.195Z,2.13
2024-02-06T03:57:26.156Z,2.00
2024-02-06T03:59:58.058Z,1.80
2024-02-06T04:02:29.924Z,1.92
2024-02-06T04:05:02.955Z,2.13
2024-02-06T04:07:34.916Z,2.08
2024-02-06T04:10:07.303Z,2.08
2024-02-06T04:12:39.248Z,2.10
2024-02-06T04:15:11.326Z,1.77
2024-02-06T04:17:43.386Z,2.50
2024-02-06T04:20:15.256Z,2.55
2024-02-06T04:22:47.115Z,2.45
2024-02-06T04:25:19.057Z,2.30
2024-02-06T04:27:50.965Z,2.35
2024-02-06T04:30:22.831Z,2.67
2024-02-06T04:32:55.741Z,2.75
2024-02-06T04:35:27.857Z,3.30
2024-02-06T04:37:59.778Z,2.20
2024-02-06T04:40:31.731Z,2.95
2024-02-06T04:43:03.647Z,2.70
2024-02-06T04:45:35.716Z,2.70
2024-02-06T04:48:08.253Z,2.90
2024-02-06T04:50:40.150Z,2.90
2024-02-06T04:53:12.054Z,3.35
2024-02-06T04:55:43.914Z,3.30
2024-02-06T04:58:15.887Z,4.35
2024-02-06T05:00:47.752Z,3.50
2024-02-06T05:03:19.604Z,3.17
2024-02-06T05:05:51.397Z,3.47
2024-02-06T05:08:23.279Z,3.20
2024-02-06T05:10:55.287Z,3.35
2024-02-06T05:13:27.486Z,3.70
2024-02-06T05:16:02.210Z,3.80
2024-02-06T05:18:34.339Z,4.18
2024-02-06T05:21:06.398Z,3.80
2024-02-06T05:23:38.416Z,4.35
2024-02-06T05:26:10.264Z,4.43
2024-02-06T05:28:42.261Z,4.28
2024-02-06T05:31:14.895Z,4.97
2024-02-06T05:33:46.854Z,5.43
2024-02-06T05:36:18.732Z,5.05
2024-02-06T05:38:50.626Z,5.57
2024-02-06T05:41:22.489Z,6.05
2024-02-06T05:43:54.296Z,5.85
2024-02-06T05:46:26.189Z,5.80
2024-02-06T05:48:59.082Z,6.15
2024-02-06T05:51:30.984Z,6.95
2024-02-06T05:54:02.825Z,7.82
2024-02-06T05:56:35.886Z,7.60
2024-02-06T05:59:07.725Z,7.53
2024-02-06T06:01:39.645Z,8.13
2024-02-06T06:04:11.723Z,8.88
2024-02-06T06:06:43.844Z,8.75
2024-02-06T06:09:15.776Z,11.15
2024-02-06T06:11:47.636Z,10.30
2024-02-06T06:14:19.502Z,9.32
2024-02-06T06:16:51.284Z,9.88
2024-02-06T06:19:23.284Z,10.40
2024-02-06T06:21:55.287Z,10.48
2024-02-06T06:24:27.213Z,10.88
2024-02-06T06:26:59.215Z,9.70
2024-02-06T06:29:31.096Z,10.07
2024-02-06T06:32:03.054Z,10.13
2024-02-06T06:34:35.034Z,10.85
2024-02-06T06:37:07.053Z,10.27
2024-02-06T06:39:38.940Z,9.88
2024-02-06T06:42:10.784Z,9.93
2024-02-06T06:44:43.124Z,10.25
2024-02-06T06:47:15.186Z,10.30
2024-02-06T06:49:47.118Z,9.43
2024-02-06T06:52:19.606Z,9.02
2024-02-06T06:54:51.496Z,9.68
2024-02-06T06:57:23.369Z,10.07
2024-02-06T06:59:55.291Z,10.10
2024-02-06T07:02:27.167Z,10.18
2024-02-06T07:05:02.921Z,9.52
2024-02-06T07:07:34.860Z,10.07
2024-02-06T07:10:08.049Z,9.57
2024-02-06T07:12:40.391Z,9.13
2024-02-06T07:15:12.250Z,9.52
2024-02-06T07:17:44.276Z,9.27
2024-02-06T07:20:16.360Z,9.73
2024-02-06T07:22:48.297Z,9.07
2024-02-06T07:25:20.716Z,8.20
2024-02-06T07:27:52.926Z,8.85
2024-02-06T07:30:33.402Z,9.60
2024-02-06T07:33:09.487Z,8.68
2024-02-06T07:35:41.477Z,7.50
2024-02-06T07:38:13.337Z,8.18
2024-02-06T07:40:45.374Z,7.63
2024-02-06T07:43:20.491Z,7.80
2024-02-06T07:45:52.929Z,7.10
2024-02-06T07:48:24.847Z,6.95
2024-02-06T07:50:56.768Z,7.55
2024-02-06T07:53:28.616Z,6.40
2024-02-06T07:56:00.715Z,5.90
2024-02-06T07:58:32.722Z,6.75
2024-02-06T08:01:05.108Z,6.15
2024-02-06T08:03:37.099Z,6.55
2024-02-06T08:06:09.453Z,5.65
2024-02-06T08:08:41.459Z,6.05
2024-02-06T08:11:13.287Z,5.88
2024-02-06T08:13:45.730Z,5.88
2024-02-06T08:16:19.236Z,5.85
2024-02-06T08:18:51.417Z,5.50
2024-02-06T08:21:23.347Z,5.40
2024-02-06T08:23:56.351Z,5.45
2024-02-06T08:26:28.263Z,5.05
2024-02-06T08:29:00.200Z,4.75
2024-02-06T08:31:32.542Z,5.35
2024-02-06T08:34:04.544Z,4.50
2024-02-06T08:36:36.564Z,4.72
2024-02-06T08:39:08.537Z,4.95
2024-02-06T08:41:40.503Z,4.40
2024-02-06T08:44:12.517Z,4.60
2024-02-06T08:46:44.407Z,7.55
2024-02-06T08:49:16.308Z,4.88
2024-02-06T08:51:48.997Z,4.30
2024-02-06T08:54:24.078Z,5.30
2024-02-06T08:56:56.136Z,4.90
2024-02-06T08:59:28.086Z,4.00
2024-02-06T09:02:02.769Z,4.25
2024-02-06T09:04:34.954Z,4.30
2024-02-06T09:07:07.738Z,4.40
2024-02-06T09:09:40.571Z,3.90
2024-02-06T09:12:12.513Z,4.57
2024-02-06T09:14:44.495Z,5.28
2024-02-06T09:17:16.408Z,4.45
2024-02-06T09:19:48.369Z,6.10
2024-02-06T09:22:20.520Z,4.32
2024-02-06T09:24:52.554Z,4.38
2024-02-06T09:27:24.561Z,4.80
2024-02-06T09:29:57.247Z,4.25
2024-02-06T09:32:30.049Z,4.10
2024-02-06T09:35:02.170Z,4.10
2024-02-06T09:37:35.481Z,3.95
2024-02-06T09:40:07.916Z,4.65
2024-02-06T09:42:40.121Z,4.60
2024-02-06T09:45:13.111Z,4.18
2024-02-06T09:47:45.056Z,4.32
2024-02-06T09:50:16.987Z,4.40
2024-02-06T09:52:51.782Z,4.57
2024-02-06T09:55:25.207Z,4.38
2024-02-06T09:57:59.284Z,4.50
2024-02-06T10:00:32.979Z,4.63
2024-02-06T10:03:22.923Z,4.03
2024-02-06T10:05:59.301Z,4.10
2024-02-06T10:08:31.343Z,4.22
2024-02-06T10:11:05.046Z,4.20
2024-02-06T10:13:37.324Z,4.68
2024-02-06T10:16:09.327Z,4.20
2024-02-06T10:18:54.950Z,4.22
2024-02-06T10:21:29.609Z,4.35
2024-02-06T10:24:06.473Z,3.97
2024-02-06T10:26:40.322Z,4.38
2024-02-06T10:29:19.088Z,4.50
2024-02-06T10:31:53.388Z,4.07
2024-02-06T10:34:30.816Z,4.35
2024-02-06T10:37:03.196Z,4.03
2024-02-06T10:39:35.440Z,4.25
2024-02-06T10:44:42.253Z,4.05
2024-02-06T10:47:17.374Z,4.20
2024-02-06T10:49:49.500Z,4.72
2024-02-06T10:52:21.512Z,4.32
2024-02-06T10:54:53.361Z,4.00
2024-02-06T10:57:28.149Z,4.60
2024-02-06T11:00:17.765Z,3.97
2024-02-06T11:02:54.150Z,3.83
2024-02-06T11:05:46.019Z,3.90
2024-02-06T11:08:21.585Z,3.33
2024-02-06T11:10:57.564Z,3.83
2024-02-06T11:13:33.087Z,3.60
2024-02-06T11:16:08.019Z,3.95
2024-02-06T11:18:54.806Z,3.70
2024-02-06T11:21:29.089Z,3.50
2024-02-06T11:24:01.197Z,4.45
2024-02-06T11:26:33.016Z,4.43
2024-02-06T11:29:08.361Z,4.80
2024-02-06T11:31:41.086Z,5.15
2024-02-06T11:34:15.549Z,4.55
2024-02-06T11:37:00.489Z,5.00
2024-02-06T11:39:32.166Z,4.50
2024-02-06T11:42:03.862Z,5.55
2024-02-06T11:44:35.501Z,5.63
2024-02-06T11:47:07.158Z,5.70
2024-02-06T11:49:38.857Z,6.00
2024-02-06T11:52:10.872Z,5.68
2024-02-06T11:54:42.567Z,5.32
2024-02-06T11:57:14.282Z,4.93
2024-02-06T11:59:46.058Z,4.70
2024-02-06T12:02:18.824Z,4.80
2024-02-06T12:04:50.571Z,5.30
2024-02-06T12:07:23.592Z,4.75
2024-02-06T12:09:56.029Z,4.40
2024-02-06T12:12:27.697Z,4.20
2024-02-06T12:14:59.381Z,4.38
2024-02-06T12:17:32.451Z,4.85
2024-02-06T12:20:08.996Z,4.63
2024-02-06T12:22:41.604Z,4.32
2024-02-06T12:25:16.787Z,3.90
2024-02-06T12:27:57.160Z,4.50
2024-02-06T12:30:32.482Z,3.47
2024-02-06T12:33:04.303Z,3.95
2024-02-06T12:35:37.184Z,4.00
2024-02-06T12:38:12.489Z,3.80
2024-02-06T12:40:44.983Z,3.97
2024-02-06T12:43:18.114Z,4.22
2024-02-06T12:45:49.839Z,4.20
2024-02-06T12:48:21.671Z,3.95
2024-02-06T12:50:53.566Z,3.53
2024-02-06T12:53:26.532Z,3.97
2024-02-06T12:55:58.400Z,4.00
2024-02-06T12:58:32.013Z,4.50
2024-02-06T13:01:04.059Z,3.60
2024-02-06T13:03:42.311Z,3.95
2024-02-06T13:06:14.176Z,4.32
2024-02-06T13:08:46.747Z,4.35
2024-02-06T13:11:18.980Z,4.43
2024-02-06T13:13:54.659Z,3.83
2024-02-06T13:16:29.080Z,4.15
2024-02-06T13:19:01.802Z,4.65
2024-02-06T13:21:42.453Z,4.13
2024-02-06T13:24:14.084Z,4.50
2024-02-06T13:26:45.797Z,6.65
2024-02-06T13:29:17.783Z,7.05
2024-02-06T13:31:49.869Z,6.40
2024-02-06T13:34:21.708Z,4.97
2024-02-06T13:36:53.425Z,4.88
2024-02-06T13:39:25.247Z,9.50
2024-02-06T13:41:56.852Z,5.72
2024-02-06T13:44:28.441Z,4.00
2024-02-06T13:47:00.116Z,4.18
2024-02-06T13:49:33.211Z,4.38
2024-02-06T13:52:05.085Z,4.40
2024-02-06T13:54:37.740Z,3.83
2024-02-06T13:57:09.512Z,4.70
2024-02-06T13:59:41.194Z,4.68
2024-02-06T14:02:13.016Z,3.78
2024-02-06T14:04:44.741Z,4.93
2024-02-06T14:07:17.142Z,3.50
2024-02-06T14:09:49.148Z,4.40
2024-02-06T14:12:23.805Z,4.68
2024-02-06T14:14:58.285Z,3.65
2024-02-06T14:17:29.934Z,4.13
2024-02-06T14:20:02.254Z,4.40
2024-02-06T14:22:34.507Z,4.35
2024-02-06T14:25:06.458Z,5.03
2024-02-06T14:27:38.368Z,5.03
2024-02-06T14:30:10.409Z,4.82
2024-02-06T14:32:43.267Z,4.43
2024-02-06T14:35:15.127Z,5.47
2024-02-06T14:37:47.345Z,7.10
2024-02-06T14:40:20.904Z,5.85
2024-02-06T14:42:52.520Z,6.18
2024-02-06T14:45:24.342Z,8.20
2024-02-06T14:47:56.387Z,10.90
2024-02-06T14:50:28.163Z,9.45
2024-02-06T14:53:00.128Z,7.63
2024-02-06T14:55:31.757Z,9.98
2024-02-06T14:58:03.468Z,6.43
2024-02-06T15:00:35.235Z,9.18
2024-02-06T15:03:08.860Z,6.30
2024-02-06T15:05:41.104Z,6.28
2024-02-06T15:08:12.863Z,7.20
2024-02-06T15:10:44.615Z,7.60
2024-02-06T15:13:16.245Z,6.13
2024-02-06T15:15:48.109Z,5.70
2024-02-06T15:18:20.618Z,6.20
2024-02-06T15:20:55.324Z,6.88
2024-02-06T15:23:29.036Z,5.18
2024-02-06T15:26:01.301Z,5.05
2024-02-06T15:28:33.021Z,5.18
2024-02-06T15:31:05.071Z,4.80
2024-02-06T15:33:36.847Z,5.93
2024-02-06T15:36:08.626Z,5.38
2024-02-06T15:38:41.444Z,6.53
2024-02-06T15:41:13.257Z,8.30
2024-02-06T15:43:45.092Z,6.40
2024-02-06T15:46:17.445Z,9.02
2024-02-06T15:48:49.167Z,10.55
2024-02-06T15:51:21.192Z,22.33
2024-02-06T15:53:53.341Z,19.92
2024-02-06T15:56:24.972Z,21.50
2024-02-06T15:58:56.831Z,13.10
2024-02-06T16:01:28.796Z,9.45
2024-02-06T16:04:01.068Z,6.53
2024-02-06T16:06:32.749Z,11.52
2024-02-06T16:09:05.165Z,22.15
2024-02-06T16:11:46.572Z,12.55
2024-02-06T16:14:18.447Z,22.85
2024-02-06T16:16:53.145Z,21.50
2024-02-06T16:19:31.276Z,25.92
2024-02-06T16:22:04.817Z,16.70
2024-02-06T16:24:36.662Z,16.50
2024-02-06T16:27:08.280Z,10.75
2024-02-06T16:29:39.845Z,12.43
2024-02-06T16:32:12.344Z,12.38
2024-02-06T16:34:48.997Z,13.70
2024-02-06T16:37:23.336Z,9.07
2024-02-06T16:39:54.931Z,6.43
2024-02-06T16:42:26.517Z,9.75
2024-02-06T16:44:58.091Z,7.60
2024-02-06T16:47:31.254Z,6.43
2024-02-06T16:50:02.964Z,5.88
2024-02-06T16:52:35.031Z,6.05
2024-02-06T16:55:07.049Z,5.72
2024-02-06T16:57:38.855Z,7.70
2024-02-06T17:00:11.085Z,5.93
2024-02-06T17:02:42.846Z,5.63
2024-02-06T17:05:18.726Z,5.65
2024-02-06T17:07:50.944Z,6.15
2024-02-06T17:10:23.129Z,4.82
2024-02-06T17:12:54.877Z,5.30
2024-02-06T17:15:26.583Z,5.53
2024-02-06T17:17:58.316Z,5.07
2024-02-06T17:20:30.139Z,5.38
2024-02-06T17:23:01.892Z,6.43
2024-02-06T17:25:33.801Z,7.13
2024-02-06T17:28:05.734Z,14.75
2024-02-06T17:30:38.588Z,5.15
2024-02-06T17:33:13.281Z,6.70
2024-02-06T17:35:45.128Z,7.93
2024-02-06T17:38:17.062Z,7.10
2024-02-06T17:40:48.786Z,4.93
2024-02-06T17:43:20.521Z,9.00
2024-02-06T17:45:52.098Z,5.35
2024-02-06T17:48:23.786Z,6.25
2024-02-06T17:50:57.706Z,6.43
2024-02-06T17:53:30.257Z,5.93
2024-02-06T17:56:02.000Z,5.88
2024-02-06T17:58:33.767Z,6.03
2024-02-06T18:01:06.975Z,5.63
2024-02-06T18:03:38.878Z,5.43
2024-02-06T18:06:10.527Z,5.43
2024-02-06T18:08:42.674Z,10.13
2024-02-06T18:11:14.393Z,6.15
2024-02-06T18:13:46.284Z,5.40
2024-02-06T18:16:18.103Z,5.38
2024-02-06T18:18:49.758Z,5.82
2024-02-06T18:21:21.426Z,6.35
2024-02-06T18:23:53.010Z,4.70
2024-02-06T18:26:24.650Z,4.40
2024-02-06T18:28:56.335Z,4.38
2024-02-06T18:31:28.097Z,4.80
2024-02-06T18:33:59.826Z,5.55
2024-02-06T18:36:31.504Z,5.85
2024-02-06T18:39:03.269Z,5.18
2024-02-06T18:41:38.680Z,5.85
2024-02-06T18:44:10.760Z,6.63
2024-02-06T18:46:44.113Z,4.70
2024-02-06T18:49:16.197Z,7.22
2024-02-06T18:51:48.154Z,5.22
2024-02-06T18:54:19.861Z,4.05
2024-02-06T18:56:51.566Z,4.63
2024-02-06T18:59:23.232Z,4.43
2024-02-06T19:01:54.959Z,4.20
2024-02-06T19:04:26.827Z,4.18
2024-02-06T19:06:58.725Z,4.28
2024-02-06T19:09:30.365Z,4.93
2024-02-06T19:12:02.076Z,4.72
2024-02-06T19:14:33.809Z,6.32
2024-02-06T19:17:05.576Z,4.85
2024-02-06T19:19:37.331Z,4.78
2024-02-06T19:22:09.006Z,5.53
2024-02-06T19:24:44.222Z,5.45
2024-02-06T19:27:15.878Z,4.18
2024-02-06T19:29:47.479Z,4.90
2024-02-06T19:32:19.047Z,4.65
2024-02-06T19:34:50.988Z,4.40
2024-02-06T19:37:22.673Z,4.40
2024-02-06T19:39:54.848Z,4.78
2024-02-06T19:42:26.487Z,4.85
2024-02-06T19:44:58.112Z,4.93
2024-02-06T19:47:29.727Z,5.07
2024-02-06T19:50:01.669Z,5.32
2024-02-06T19:52:33.716Z,5.65
2024-02-06T19:55:05.855Z,4.10
2024-02-06T19:57:39.872Z,4.50
2024-02-06T20:00:11.947Z,4.18
2024-02-06T20:02:43.714Z,4.78
2024-02-06T20:05:15.552Z,3.97
2024-02-06T20:07:47.439Z,4.03
2024-02-06T20:10:19.169Z,4.57
2024-02-06T20:12:50.867Z,4.40
2024-02-06T20:15:22.484Z,3.78
2024-02-06T20:17:55.938Z,4.43
2024-02-06T20:20:28.230Z,4.43
2024-02-06T20:23:00.093Z,3.72
2024-02-06T20:25:31.840Z,4.22
2024-02-06T20:28:03.841Z,4.30
2024-02-06T20:30:35.641Z,4.30
2024-02-06T20:33:08.271Z,4.80
2024-02-06T20:35:40.421Z,5.38
2024-02-06T20:38:12.118Z,4.45
2024-02-06T20:40:44.370Z,4.93
2024-02-06T20:43:16.097Z,4.10
2024-02-06T20:45:47.854Z,4.30
2024-02-06T20:48:21.254Z,3.95
2024-02-06T20:50:53.089Z,3.58
2024-02-06T20:53:25.047Z,3.53
2024-02-06T20:55:57.094Z,3.63
2024-02-06T20:58:28.797Z,4.47
2024-02-06T21:01:00.487Z,4.78
2024-02-06T21:03:32.276Z,6.45
2024-02-06T21:06:05.067Z,4.50
2024-02-06T21:08:39.469Z,3.72
2024-02-06T21:11:11.102Z,3.40
2024-02-06T21:13:42.773Z,3.72
2024-02-06T21:16:14.578Z,3.90
2024-02-06T21:18:46.481Z,3.90
2024-02-06T21:21:18.207Z,3.58
2024-02-06T21:23:50.210Z,3.78
2024-02-06T21:26:24.040Z,3.60
2024-02-06T21:28:55.750Z,4.18
2024-02-06T21:31:28.178Z,4.22
2024-02-06T21:34:00.619Z,9.23
2024-02-06T21:36:36.393Z,7.60
2024-02-06T21:39:08.248Z,4.13
2024-02-06T21:41:39.881Z,3.72
2024-02-06T21:44:11.544Z,3.80
2024-02-06T21:46:43.304Z,3.50
2024-02-06T21:49:15.197Z,3.10
2024-02-06T21:51:46.861Z,3.85
2024-02-06T21:54:18.461Z,3.95
2024-02-06T21:56:50.059Z,3.80
2024-02-06T21:59:21.670Z,4.07
2024-02-06T22:01:53.353Z,3.88
2024-02-06T22:04:25.154Z,3.40
2024-02-06T22:06:56.918Z,4.55
2024-02-06T22:09:28.619Z,8.57
2024-02-06T22:12:00.230Z,4.80
2024-02-06T22:14:31.996Z,3.83
2024-02-06T22:17:05.237Z,4.20
2024-02-06T22:19:37.732Z,4.43
2024-02-06T22:22:09.470Z,3.85
2024-02-06T22:24:44.888Z,3.40
2024-02-06T22:27:17.880Z,3.90
2024-02-06T22:29:49.501Z,4.38
2024-02-06T22:32:21.531Z,3.90
2024-02-06T22:34:53.290Z,4.43
2024-02-06T22:37:24.928Z,3.97
2024-02-06T22:39:57.340Z,3.95
2024-02-06T22:42:29.072Z,3.58
2024-02-06T22:45:00.731Z,4.20
2024-02-06T22:47:32.418Z,4.35
2024-02-06T22:50:04.452Z,6.20
2024-02-06T22:52:36.234Z,5.25
2024-02-06T22:55:08.009Z,3.80
2024-02-06T22:57:40.440Z,3.80
2024-02-06T23:00:16.847Z,3.90
2024-02-06T23:02:48.468Z,4.50
2024-02-06T23:05:20.093Z,4.90
2024-02-06T23:07:51.976Z,4.05
2024-02-06T23:10:23.828Z,4.25
2024-02-06T23:12:55.605Z,3.88
2024-02-06T23:15:27.209Z,4.15
2024-02-06T23:17:59.252Z,3.45
2024-02-06T23:20:30.909Z,3.72
2024-02-06T23:23:02.531Z,3.90
2024-02-06T23:25:34.166Z,6.18
2024-02-06T23:28:06.147Z,7.57
2024-02-06T23:30:37.850Z,4.07
2024-02-06T23:33:09.756Z,3.97
2024-02-06T23:35:41.388Z,3.88
2024-02-06T23:38:13.008Z,3.92
2024-02-06T23:40:44.653Z,3.42
2024-02-06T23:43:16.525Z,3.50
2024-02-06T23:45:48.145Z,3.63
2024-02-06T23:48:19.760Z,4.38
2024-02-06T23:50:51.445Z,3.35
2024-02-06T23:53:23.091Z,3.67
2024-02-06T23:55:54.746Z,3.65
2024-02-06T23:58:27.137Z,3.78
